Time;durP1;ratioP1;P1;durP2;ratioP2;P2;SDS_P1;SDS_P2;PMS_P1;PMS_P2;Temp;Humidity;BMP_temperature;BMP_pressure;BME280_temperature;BME280_humidity;BME280_pressure;Samples;Min_cycle;Max_cycle;Signal;HPM_P1;HPM_P2
2021/03/14 00:00:41;;;;;;;0.20;0.20;;;;;;;;;;5082452;28;20207;-76
2021/03/14 00:03:07;;;;;;;0.20;0.20;;;;;;;;;;5061855;28;20222;-76
2021/03/14 00:05:34;;;;;;;0.20;0.20;;;;;;;;;;5082176;28;20219;-76
2021/03/14 00:08:01;;;;;;;0.20;0.20;;;;;;;;;;5065141;28;20203;-75
2021/03/14 00:10:27;;;;;;;0.20;0.20;;;;;;;;;;5061530;28;20255;-75
2021/03/14 00:12:54;;;;;;;0.20;0.20;;;;;;;;;;5053014;28;20205;-75
2021/03/14 00:15:21;;;;;;;0.20;0.20;;;;;;;;;;5064009;28;20211;-76
2021/03/14 00:17:47;;;;;;;0.20;0.20;;;;;;;;;;5083568;28;20241;-76
2021/03/14 00:20:14;;;;;;;0.20;0.20;;;;;;;;;;5060845;28;20207;-76
2021/03/14 00:22:40;;;;;;;0.20;0.20;;;;;;;;;;5062357;28;20283;-76
2021/03/14 00:25:07;;;;;;;0.20;0.20;;;;;;;;;;5072107;28;20238;-76
2021/03/14 00:27:33;;;;;;;0.20;0.20;;;;;;;;;;5058530;28;20499;-75
2021/03/14 00:30:01;;;;;;;0.20;0.20;;;;;;;;;;5078347;28;20203;-75
2021/03/14 00:32:26;;;;;;;0.20;0.20;;;;;;;;;;5084753;28;20213;-75
2021/03/14 00:34:53;;;;;;;0.23;0.23;;;;;;;;;;5063853;28;20271;-76
2021/03/14 00:37:19;;;;;;;0.20;0.20;;;;;;;;;;5045814;28;20209;-75
2021/03/14 00:39:46;;;;;;;0.20;0.20;;;;;;;;;;5050137;28;20203;-75
2021/03/14 00:42:12;;;;;;;0.20;0.20;;;;;;;;;;5055131;28;20221;-75
2021/03/14 00:44:38;;;;;;;0.20;0.20;;;;;;;;;;5053440;28;20201;-75
2021/03/14 00:47:05;;;;;;;0.20;0.20;;;;;;;;;;5064227;28;20545;-75
2021/03/14 00:49:32;;;;;;;0.20;0.20;;;;;;;;;;5076210;28;20211;-76
2021/03/14 00:51:58;;;;;;;0.20;0.20;;;;;;;;;;5058449;28;20195;-76
2021/03/14 00:54:24;;;;;;;0.20;0.20;;;;;;;;;;5075268;28;20203;-75
2021/03/14 00:56:51;;;;;;;0.20;0.20;;;;;;;;;;5063329;28;20208;-76
2021/03/14 00:59:17;;;;;;;0.20;0.20;;;;;;;;;;5069224;28;20205;-75
2021/03/14 01:01:43;;;;;;;0.20;0.20;;;;;;;;;;5077711;28;20223;-75
2021/03/14 01:04:10;;;;;;;0.30;0.30;;;;;;;;;;5048937;28;20221;-75
2021/03/14 01:06:37;;;;;;;0.10;0.10;;;;;;;;;;5054976;28;20497;-75
2021/03/14 01:09:03;;;;;;;0.20;0.20;;;;;;;;;;5047112;28;20222;-75
2021/03/14 01:11:29;;;;;;;0.20;0.20;;;;;;;;;;5071764;28;20200;-75
2021/03/14 01:13:55;;;;;;;0.10;0.10;;;;;;;;;;5076115;28;20266;-74
2021/03/14 01:16:22;;;;;;;0.20;0.20;;;;;;;;;;5081373;28;20204;-75
2021/03/14 01:18:48;;;;;;;0.20;0.20;;;;;;;;;;5062932;28;20202;-76
2021/03/14 01:21:15;;;;;;;0.20;0.20;;;;;;;;;;5076098;28;20203;-75
2021/03/14 01:23:41;;;;;;;0.20;0.20;;;;;;;;;;5058155;28;20237;-76
2021/03/14 01:26:08;;;;;;;0.20;0.20;;;;;;;;;;5076313;28;20234;-75
2021/03/14 01:28:34;;;;;;;0.20;0.20;;;;;;;;;;5064995;28;20410;-75
2021/03/14 01:31:00;;;;;;;0.20;0.20;;;;;;;;;;5066359;28;20512;-75
2021/03/14 01:33:27;;;;;;;0.30;0.30;;;;;;;;;;5056854;28;20501;-74
2021/03/14 01:35:53;;;;;;;0.20;0.20;;;;;;;;;;5055322;28;20199;-75
2021/03/14 01:38:20;;;;;;;0.20;0.20;;;;;;;;;;5083684;28;20204;-76
2021/03/14 01:40:46;;;;;;;0.20;0.20;;;;;;;;;;5063811;28;20276;-75
2021/03/14 01:43:13;;;;;;;0.10;0.10;;;;;;;;;;5052902;28;20242;-75
2021/03/14 01:45:40;;;;;;;0.27;0.27;;;;;;;;;;5079660;28;20203;-75
2021/03/14 01:48:07;;;;;;;0.20;0.20;;;;;;;;;;5063316;28;20236;-75
2021/03/14 01:50:34;;;;;;;0.20;0.20;;;;;;;;;;5054462;28;20371;-76
2021/03/14 01:53:00;;;;;;;0.20;0.20;;;;;;;;;;5056469;28;20195;-75
2021/03/14 01:55:27;;;;;;;0.20;0.20;;;;;;;;;;5083296;28;20362;-75
2021/03/14 01:57:53;;;;;;;0.20;0.20;;;;;;;;;;5065093;28;20203;-76
2021/03/14 02:00:20;;;;;;;0.20;0.20;;;;;;;;;;5086220;28;20475;-75
2021/03/14 02:02:47;;;;;;;0.20;0.20;;;;;;;;;;5084003;28;20223;-76
2021/03/14 02:05:14;;;;;;;0.20;0.20;;;;;;;;;;5069260;28;20414;-76
2021/03/14 02:07:41;;;;;;;0.20;0.20;;;;;;;;;;5086088;28;20514;-76
2021/03/14 02:10:07;;;;;;;0.27;0.27;;;;;;;;;;5082178;28;20196;-74
2021/03/14 02:12:38;;;;;;;0.27;0.27;;;;;;;;;;5085758;28;20199;-75
2021/03/14 02:15:05;;;;;;;0.20;0.20;;;;;;;;;;5079480;28;20215;-76
2021/03/14 02:17:34;;;;;;;0.30;0.30;;;;;;;;;;5067855;28;20199;-75
2021/03/14 02:20:06;;;;;;;0.20;0.20;;;;;;;;;;5085035;28;20494;-75
2021/03/14 02:22:33;;;;;;;0.20;0.20;;;;;;;;;;5088207;28;20219;-75
2021/03/14 02:25:01;;;;;;;0.20;0.20;;;;;;;;;;5066994;28;20201;-75
2021/03/14 02:27:29;;;;;;;0.20;0.20;;;;;;;;;;5078169;28;20197;-77
2021/03/14 02:29:55;;;;;;;0.20;0.20;;;;;;;;;;5082176;28;20489;-76
2021/03/14 02:32:22;;;;;;;0.20;0.20;;;;;;;;;;5069445;28;20196;-75
2021/03/14 02:34:50;;;;;;;0.20;0.20;;;;;;;;;;5073182;28;20207;-74
2021/03/14 02:37:17;;;;;;;0.20;0.20;;;;;;;;;;5078413;28;20203;-76
2021/03/14 02:39:43;;;;;;;0.20;0.20;;;;;;;;;;5057693;28;20200;-76
2021/03/14 02:42:10;;;;;;;2.27;0.77;;;;;;;;;;5089071;28;20261;-75
2021/03/14 02:44:39;;;;;;;0.20;0.20;;;;;;;;;;5086820;28;20201;-75
2021/03/14 02:47:06;;;;;;;0.20;0.20;;;;;;;;;;5067631;28;20261;-75
2021/03/14 02:49:32;;;;;;;0.20;0.20;;;;;;;;;;5086444;28;20367;-75
2021/03/14 02:51:58;;;;;;;0.20;0.20;;;;;;;;;;5081646;28;20195;-75
2021/03/14 02:54:25;;;;;;;0.20;0.20;;;;;;;;;;5073273;28;20208;-74
2021/03/14 02:56:52;;;;;;;0.20;0.20;;;;;;;;;;5086442;28;20220;-75
2021/03/14 02:59:20;;;;;;;0.20;0.20;;;;;;;;;;5063782;28;20286;-75
2021/03/14 03:01:48;;;;;;;0.20;0.20;;;;;;;;;;5063026;28;20203;-76
2021/03/14 03:04:16;;;;;;;0.20;0.20;;;;;;;;;;5063478;28;20272;-75
2021/03/14 03:06:43;;;;;;;0.20;0.20;;;;;;;;;;5081440;28;20199;-74
2021/03/14 03:09:09;;;;;;;0.20;0.20;;;;;;;;;;5081169;28;20211;-75
2021/03/14 03:11:36;;;;;;;0.20;0.20;;;;;;;;;;5053624;28;20200;-74
2021/03/14 03:14:02;;;;;;;0.20;0.20;;;;;;;;;;5084094;28;20204;-76
2021/03/14 03:16:28;;;;;;;0.93;0.60;;;;;;;;;;5079098;28;20207;-75
2021/03/14 03:18:55;;;;;;;0.30;0.30;;;;;;;;;;5070477;28;20314;-74
2021/03/14 03:21:22;;;;;;;0.20;0.20;;;;;;;;;;5063128;28;20496;-74
2021/03/14 03:23:49;;;;;;;0.20;0.20;;;;;;;;;;5065708;28;20230;-74
2021/03/14 03:26:15;;;;;;;0.20;0.20;;;;;;;;;;5085989;28;20525;-75
2021/03/14 03:28:41;;;;;;;0.20;0.20;;;;;;;;;;5064988;28;20200;-74
2021/03/14 03:31:07;;;;;;;0.37;0.23;;;;;;;;;;5069220;28;20215;-74
2021/03/14 03:33:33;;;;;;;0.20;0.20;;;;;;;;;;5082911;28;20196;-74
2021/03/14 03:36:01;;;;;;;0.30;0.30;;;;;;;;;;5064470;28;20200;-74
2021/03/14 03:38:27;;;;;;;0.20;0.20;;;;;;;;;;5066690;28;20204;-74
2021/03/14 03:40:55;;;;;;;0.20;0.20;;;;;;;;;;5055887;28;20210;-74
2021/03/14 03:43:23;;;;;;;0.20;0.20;;;;;;;;;;5051976;28;20212;-75
2021/03/14 03:45:51;;;;;;;0.13;0.13;;;;;;;;;;5060709;28;20254;-74
2021/03/14 03:48:19;;;;;;;0.30;0.30;;;;;;;;;;5076573;28;20219;-75
2021/03/14 03:50:46;;;;;;;0.20;0.20;;;;;;;;;;5077712;28;20201;-75
2021/03/14 03:53:14;;;;;;;0.20;0.20;;;;;;;;;;5082244;28;20196;-75
2021/03/14 03:55:41;;;;;;;0.20;0.20;;;;;;;;;;5057304;28;20203;-75
2021/03/14 03:58:09;;;;;;;0.20;0.20;;;;;;;;;;5063858;28;20203;-75
2021/03/14 04:00:36;;;;;;;0.20;0.20;;;;;;;;;;5081756;28;20578;-74
2021/03/14 04:03:03;;;;;;;0.20;0.20;;;;;;;;;;5083777;28;20220;-74
2021/03/14 04:05:30;;;;;;;0.20;0.20;;;;;;;;;;5065296;28;20268;-75
2021/03/14 04:07:56;;;;;;;0.20;0.20;;;;;;;;;;5064440;28;20426;-75
2021/03/14 04:10:24;;;;;;;0.20;0.20;;;;;;;;;;5062509;28;20209;-75
2021/03/14 04:12:52;;;;;;;0.20;0.20;;;;;;;;;;5063953;28;20501;-75
2021/03/14 04:15:20;;;;;;;0.20;0.20;;;;;;;;;;5080713;28;20430;-74
2021/03/14 04:17:47;;;;;;;0.20;0.20;;;;;;;;;;5083245;28;20199;-74
2021/03/14 04:20:15;;;;;;;0.20;0.20;;;;;;;;;;5080547;28;20205;-74
2021/03/14 04:22:43;;;;;;;0.20;0.20;;;;;;;;;;5082206;28;20592;-74
2021/03/14 04:25:11;;;;;;;0.20;0.20;;;;;;;;;;5053921;28;20393;-73
2021/03/14 04:27:38;;;;;;;0.20;0.20;;;;;;;;;;5083046;28;20199;-74
2021/03/14 04:30:06;;;;;;;0.20;0.20;;;;;;;;;;5063641;28;20208;-74
2021/03/14 04:32:32;;;;;;;0.20;0.20;;;;;;;;;;5051076;28;20196;-75
2021/03/14 04:34:59;;;;;;;0.20;0.20;;;;;;;;;;5045833;28;20204;-74
2021/03/14 04:37:25;;;;;;;0.20;0.20;;;;;;;;;;5056250;28;20284;-74
2021/03/14 04:39:53;;;;;;;0.20;0.20;;;;;;;;;;5080214;28;20364;-74
2021/03/14 04:42:19;;;;;;;0.20;0.20;;;;;;;;;;5064919;28;20226;-75
2021/03/14 04:44:46;;;;;;;0.20;0.20;;;;;;;;;;5060880;28;20541;-75
2021/03/14 04:47:12;;;;;;;0.20;0.20;;;;;;;;;;5078307;28;20209;-74
2021/03/14 04:49:39;;;;;;;0.20;0.20;;;;;;;;;;5082481;28;20261;-75
2021/03/14 04:52:06;;;;;;;0.20;0.20;;;;;;;;;;5053154;28;20392;-75
2021/03/14 04:54:33;;;;;;;0.20;0.20;;;;;;;;;;5065715;28;20410;-75
2021/03/14 04:56:59;;;;;;;0.20;0.20;;;;;;;;;;5060322;28;20215;-75
2021/03/14 04:59:26;;;;;;;0.20;0.20;;;;;;;;;;5082314;28;20199;-74
2021/03/14 05:01:55;;;;;;;0.20;0.20;;;;;;;;;;5063519;28;20199;-75
2021/03/14 05:04:22;;;;;;;0.20;0.20;;;;;;;;;;5080584;28;20223;-74
2021/03/14 05:06:50;;;;;;;0.20;0.20;;;;;;;;;;5061469;28;20207;-74
2021/03/14 05:09:16;;;;;;;0.20;0.20;;;;;;;;;;5052368;28;20240;-74
2021/03/14 05:11:43;;;;;;;0.20;0.20;;;;;;;;;;5056310;28;20207;-75
2021/03/14 05:14:10;;;;;;;0.20;0.20;;;;;;;;;;5055700;28;20195;-75
2021/03/14 05:16:36;;;;;;;0.20;0.20;;;;;;;;;;5078520;28;20208;-74
2021/03/14 05:19:04;;;;;;;0.20;0.20;;;;;;;;;;5080717;28;20203;-75
2021/03/14 05:21:31;;;;;;;0.20;0.20;;;;;;;;;;5056791;28;20204;-74
2021/03/14 05:23:57;;;;;;;0.20;0.20;;;;;;;;;;5051794;28;20220;-74
2021/03/14 05:26:24;;;;;;;0.27;0.27;;;;;;;;;;5077714;28;20203;-74
2021/03/14 05:28:50;;;;;;;0.20;0.20;;;;;;;;;;5064729;28;20212;-71
2021/03/14 05:31:30;;;;;;;0.20;0.20;;;;;;;;;;5081467;28;20206;-74
2021/03/14 05:33:57;;;;;;;0.20;0.20;;;;;;;;;;5063831;28;20201;-75
2021/03/14 05:36:24;;;;;;;0.20;0.20;;;;;;;;;;5081294;28;20198;-75
2021/03/14 05:38:50;;;;;;;0.20;0.20;;;;;;;;;;5085042;28;20567;-75
2021/03/14 05:41:17;;;;;;;0.20;0.20;;;;;;;;;;5060514;28;20504;-74
2021/03/14 05:43:43;;;;;;;0.20;0.20;;;;;;;;;;5060267;28;20208;-75
2021/03/14 05:46:09;;;;;;;0.20;0.20;;;;;;;;;;5076805;28;20200;-76
2021/03/14 05:48:36;;;;;;;0.20;0.20;;;;;;;;;;5065327;28;20215;-74
2021/03/14 05:51:02;;;;;;;0.20;0.20;;;;;;;;;;5074320;28;20205;-75
2021/03/14 05:53:30;;;;;;;0.20;0.20;;;;;;;;;;5084354;28;20200;-75
2021/03/14 05:55:57;;;;;;;0.20;0.20;;;;;;;;;;5065252;28;20385;-75
2021/03/14 05:58:23;;;;;;;0.30;0.30;;;;;;;;;;5076584;28;20419;-75
2021/03/14 06:00:51;;;;;;;0.20;0.20;;;;;;;;;;5063693;28;20195;-76
2021/03/14 06:03:18;;;;;;;0.20;0.20;;;;;;;;;;5058522;28;20246;-75
2021/03/14 06:05:44;;;;;;;0.20;0.20;;;;;;;;;;5062126;28;20220;-74
2021/03/14 06:08:11;;;;;;;0.20;0.20;;;;;;;;;;5060197;28;20199;-75
2021/03/14 06:10:38;;;;;;;0.20;0.20;;;;;;;;;;5079776;28;20278;-73
2021/03/14 06:13:05;;;;;;;0.20;0.20;;;;;;;;;;5057006;28;20432;-75
2021/03/14 06:15:32;;;;;;;0.20;0.20;;;;;;;;;;5074465;28;20207;-76
2021/03/14 06:17:58;;;;;;;0.20;0.20;;;;;;;;;;5063660;28;20500;-75
2021/03/14 06:20:35;;;;;;;0.20;0.20;;;;;;;;;;5055609;28;20275;-76
2021/03/14 06:23:06;;;;;;;0.20;0.20;;;;;;;;;;5062658;28;20223;-76
2021/03/14 06:25:33;;;;;;;0.20;0.20;;;;;;;;;;5077405;28;20199;-74
2021/03/14 06:28:00;;;;;;;0.20;0.20;;;;;;;;;;5063387;28;20203;-76
2021/03/14 06:30:27;;;;;;;0.20;0.20;;;;;;;;;;5080902;28;20396;-76
2021/03/14 06:33:07;;;;;;;0.20;0.20;;;;;;;;;;5079290;28;20206;-74
2021/03/14 06:35:37;;;;;;;0.20;0.20;;;;;;;;;;5059049;28;20212;-74
2021/03/14 06:38:16;;;;;;;0.20;0.20;;;;;;;;;;5053275;28;20199;-73
2021/03/14 06:40:43;;;;;;;0.20;0.20;;;;;;;;;;5065176;28;20203;-76
2021/03/14 06:43:11;;;;;;;0.20;0.20;;;;;;;;;;5050813;28;20224;-76
2021/03/14 06:45:38;;;;;;;0.20;0.20;;;;;;;;;;5058719;28;20198;-75
2021/03/14 06:48:05;;;;;;;0.20;0.20;;;;;;;;;;5082065;28;20248;-75
2021/03/14 06:50:35;;;;;;;0.20;0.20;;;;;;;;;;5080564;28;20256;-78
2021/03/14 06:53:11;;;;;;;0.20;0.20;;;;;;;;;;5080902;28;20621;-74
2021/03/14 06:55:38;;;;;;;0.20;0.20;;;;;;;;;;5060431;28;20203;-75
2021/03/14 06:58:19;;;;;;;0.20;0.20;;;;;;;;;;5077925;28;20424;-75
2021/03/14 07:01:00;;;;;;;0.20;0.20;;;;;;;;;;5080702;28;20199;-74
2021/03/14 07:03:27;;;;;;;0.20;0.20;;;;;;;;;;5075854;28;20220;-74
2021/03/14 07:06:05;;;;;;;0.30;0.30;;;;;;;;;;5061721;28;20203;-74
2021/03/14 07:08:32;;;;;;;0.23;0.23;;;;;;;;;;5097052;28;20226;-74
2021/03/14 07:10:58;;;;;;;0.20;0.20;;;;;;;;;;5061260;28;20225;-74
2021/03/14 07:13:24;;;;;;;0.20;0.20;;;;;;;;;;5059057;28;20195;-74
2021/03/14 07:15:51;;;;;;;0.20;0.20;;;;;;;;;;5077046;28;20196;-73
2021/03/14 07:18:17;;;;;;;0.20;0.20;;;;;;;;;;5062986;28;20212;-75
2021/03/14 07:20:44;;;;;;;0.20;0.20;;;;;;;;;;5055416;28;20204;-74
2021/03/14 07:23:11;;;;;;;0.20;0.20;;;;;;;;;;5077948;28;20246;-74
2021/03/14 07:25:40;;;;;;;0.20;0.20;;;;;;;;;;5056684;28;21217;-74
2021/03/14 07:28:07;;;;;;;0.20;0.20;;;;;;;;;;5082156;28;20195;-74
2021/03/14 07:30:33;;;;;;;0.20;0.20;;;;;;;;;;5084706;28;20199;-75
2021/03/14 07:33:00;;;;;;;0.20;0.20;;;;;;;;;;5086679;28;20200;-75
2021/03/14 07:35:27;;;;;;;0.20;0.20;;;;;;;;;;5058190;28;20207;-74
2021/03/14 07:37:54;;;;;;;0.20;0.20;;;;;;;;;;5076774;28;20200;-74
2021/03/14 07:40:22;;;;;;;0.20;0.20;;;;;;;;;;5082585;28;20204;-75
2021/03/14 07:42:49;;;;;;;0.20;0.20;;;;;;;;;;5066467;28;20408;-75
2021/03/14 07:45:16;;;;;;;0.20;0.20;;;;;;;;;;5084631;28;20199;-73
2021/03/14 07:47:43;;;;;;;0.20;0.20;;;;;;;;;;5064854;28;20212;-75
2021/03/14 07:50:10;;;;;;;0.20;0.20;;;;;;;;;;5080347;28;20211;-75
2021/03/14 07:52:38;;;;;;;0.20;0.20;;;;;;;;;;5081113;28;20596;-77
2021/03/14 07:55:09;;;;;;;0.50;0.50;;;;;;;;;;5062815;28;20196;-76
2021/03/14 07:57:35;;;;;;;0.20;0.20;;;;;;;;;;5089186;28;20211;-78
2021/03/14 08:00:16;;;;;;;0.20;0.20;;;;;;;;;;5084292;28;20509;-76
2021/03/14 08:02:53;;;;;;;0.20;0.20;;;;;;;;;;5081978;28;20230;-76
2021/03/14 08:05:39;;;;;;;0.20;0.20;;;;;;;;;;5081166;28;20227;-77
2021/03/14 08:08:06;;;;;;;0.20;0.20;;;;;;;;;;5078994;28;20200;-78
2021/03/14 08:10:37;;;;;;;0.20;0.20;;;;;;;;;;5075798;28;20200;-73
2021/03/14 08:13:05;;;;;;;0.20;0.20;;;;;;;;;;5060752;28;20488;-77
2021/03/14 08:15:32;;;;;;;0.20;0.20;;;;;;;;;;5058879;28;20542;-76
2021/03/14 08:17:59;;;;;;;0.20;0.20;;;;;;;;;;5079215;28;20205;-69
2021/03/14 08:20:35;;;;;;;0.20;0.20;;;;;;;;;;5075203;28;20203;-67
2021/03/14 08:23:02;;;;;;;0.20;0.20;;;;;;;;;;5054095;28;20366;-68
2021/03/14 08:25:29;;;;;;;0.20;0.20;;;;;;;;;;5056685;28;20269;-68
2021/03/14 08:27:57;;;;;;;0.20;0.20;;;;;;;;;;5073608;28;20201;-69
2021/03/14 08:30:43;;;;;;;0.20;0.20;;;;;;;;;;5073399;28;20210;-68
2021/03/14 08:33:26;;;;;;;0.20;0.20;;;;;;;;;;5077584;28;20248;-67
2021/03/14 08:35:53;;;;;;;0.20;0.20;;;;;;;;;;5077622;28;20206;-70
2021/03/14 08:38:27;;;;;;;0.20;0.20;;;;;;;;;;5059808;28;20199;-70
2021/03/14 08:41:12;;;;;;;0.27;0.27;;;;;;;;;;5051799;28;20206;-69
2021/03/14 08:43:43;;;;;;;0.20;0.20;;;;;;;;;;5087429;28;20223;-68
2021/03/14 08:46:09;;;;;;;0.20;0.20;;;;;;;;;;5061258;28;20222;-69
2021/03/14 08:48:36;;;;;;;0.20;0.20;;;;;;;;;;5058848;28;20375;-75
2021/03/14 08:51:02;;;;;;;0.10;0.10;;;;;;;;;;5078510;28;20200;-77
2021/03/14 08:53:28;;;;;;;0.20;0.20;;;;;;;;;;5075351;28;20196;-75
2021/03/14 08:55:54;;;;;;;0.20;0.20;;;;;;;;;;5080474;28;20196;-75
2021/03/14 08:58:22;;;;;;;0.30;0.30;;;;;;;;;;5070517;28;20197;-76
2021/03/14 09:01:01;;;;;;;0.20;0.20;;;;;;;;;;5052111;28;20201;-75
2021/03/14 09:03:27;;;;;;;0.20;0.20;;;;;;;;;;5074517;28;20289;-74
2021/03/14 09:06:10;;;;;;;0.60;0.60;;;;;;;;;;5071789;28;20484;-74
2021/03/14 09:08:36;;;;;;;0.20;0.20;;;;;;;;;;5073222;28;20210;-74
2021/03/14 09:11:02;;;;;;;0.77;0.77;;;;;;;;;;5069741;28;20412;-74
2021/03/14 09:13:29;;;;;;;0.20;0.20;;;;;;;;;;5058636;28;20196;-76
2021/03/14 09:15:55;;;;;;;0.20;0.20;;;;;;;;;;5077351;28;20272;-73
2021/03/14 09:18:26;;;;;;;0.20;0.20;;;;;;;;;;5077087;28;20210;-75
2021/03/14 09:20:58;;;;;;;0.20;0.20;;;;;;;;;;5081551;28;20206;-76
2021/03/14 09:23:24;;;;;;;0.20;0.20;;;;;;;;;;5068578;28;20227;-76
2021/03/14 09:25:51;;;;;;;0.20;0.20;;;;;;;;;;5054611;28;20197;-75
2021/03/14 09:28:17;;;;;;;0.40;0.40;;;;;;;;;;5069762;28;20212;-74
2021/03/14 09:30:44;;;;;;;0.40;0.40;;;;;;;;;;5070607;28;20211;-77
2021/03/14 09:33:12;;;;;;;0.20;0.20;;;;;;;;;;5056909;28;20479;-75
2021/03/14 09:35:40;;;;;;;0.20;0.20;;;;;;;;;;5070485;28;20212;-74
2021/03/14 09:38:08;;;;;;;0.20;0.20;;;;;;;;;;5071223;28;20378;-75
2021/03/14 09:40:35;;;;;;;0.20;0.20;;;;;;;;;;5073766;28;20202;-76
2021/03/14 09:43:07;;;;;;;0.20;0.20;;;;;;;;;;5057179;28;20219;-76
2021/03/14 09:45:33;;;;;;;0.20;0.20;;;;;;;;;;5076987;28;20195;-76
2021/03/14 09:48:01;;;;;;;0.40;0.40;;;;;;;;;;5069071;28;20239;-73
2021/03/14 09:50:28;;;;;;;0.20;0.20;;;;;;;;;;5073246;28;20202;-76
2021/03/14 09:52:59;;;;;;;0.20;0.20;;;;;;;;;;5081345;28;20202;-75
2021/03/14 09:55:26;;;;;;;0.20;0.20;;;;;;;;;;5078821;28;20221;-75
2021/03/14 09:57:52;;;;;;;0.20;0.20;;;;;;;;;;5074364;28;20279;-76
2021/03/14 10:00:23;;;;;;;0.20;0.20;;;;;;;;;;5057574;28;20211;-76
2021/03/14 10:02:50;;;;;;;0.20;0.20;;;;;;;;;;5057715;28;20409;-75
2021/03/14 10:05:16;;;;;;;0.20;0.20;;;;;;;;;;5073072;28;20256;-76
2021/03/14 10:07:42;;;;;;;0.20;0.20;;;;;;;;;;5077408;28;20424;-75
2021/03/14 10:10:11;;;;;;;0.20;0.20;;;;;;;;;;5050353;28;20201;-74
2021/03/14 10:12:37;;;;;;;0.20;0.20;;;;;;;;;;5074060;28;20203;-75
2021/03/14 10:15:04;;;;;;;0.20;0.20;;;;;;;;;;5054722;28;20207;-76
2021/03/14 10:17:30;;;;;;;0.10;0.10;;;;;;;;;;5074715;28;20221;-76
2021/03/14 10:19:57;;;;;;;0.20;0.20;;;;;;;;;;5075867;28;20197;-75
2021/03/14 10:22:30;;;;;;;0.20;0.20;;;;;;;;;;5060857;28;20437;-77
2021/03/14 10:24:57;;;;;;;0.20;0.20;;;;;;;;;;5060448;28;20207;-75
2021/03/14 10:27:25;;;;;;;0.20;0.20;;;;;;;;;;5079909;28;20201;-75
2021/03/14 10:29:55;;;;;;;0.20;0.20;;;;;;;;;;5063982;28;20231;-76
2021/03/14 10:32:22;;;;;;;0.20;0.20;;;;;;;;;;5079031;28;20493;-74
2021/03/14 10:34:52;;;;;;;0.20;0.20;;;;;;;;;;5081235;28;20256;-75
2021/03/14 10:37:25;;;;;;;0.20;0.20;;;;;;;;;;5081612;28;20300;-73
2021/03/14 10:39:56;;;;;;;0.20;0.20;;;;;;;;;;5062588;28;20527;-73
2021/03/14 10:42:33;;;;;;;0.20;0.20;;;;;;;;;;5074963;28;20434;-71
2021/03/14 10:45:01;;;;;;;0.30;0.30;;;;;;;;;;5063741;28;20224;-74
2021/03/14 10:47:28;;;;;;;0.20;0.20;;;;;;;;;;5063090;28;20207;-72
2021/03/14 10:50:05;;;;;;;0.20;0.20;;;;;;;;;;5082013;28;20218;-74
2021/03/14 10:52:32;;;;;;;0.20;0.20;;;;;;;;;;5076817;28;20395;-78
2021/03/14 10:54:58;;;;;;;0.20;0.20;;;;;;;;;;5064876;28;20485;-73
2021/03/14 10:57:25;;;;;;;0.10;0.10;;;;;;;;;;5067200;28;20203;-76
2021/03/14 11:00:03;;;;;;;0.20;0.20;;;;;;;;;;5060819;28;20198;-74
2021/03/14 11:02:40;;;;;;;0.20;0.20;;;;;;;;;;5084797;28;20210;-74
2021/03/14 11:05:06;;;;;;;0.40;0.40;;;;;;;;;;5086745;28;20223;-75
2021/03/14 11:07:34;;;;;;;0.20;0.20;;;;;;;;;;5079166;28;20260;-75
2021/03/14 11:10:05;;;;;;;0.20;0.20;;;;;;;;;;5094482;28;20233;-75
2021/03/14 11:12:32;;;;;;;0.20;0.20;;;;;;;;;;5083427;28;20205;-74
2021/03/14 11:15:00;;;;;;;0.20;0.20;;;;;;;;;;5083177;28;20429;-75
2021/03/14 11:17:29;;;;;;;0.20;0.20;;;;;;;;;;5063148;28;20200;-76
2021/03/14 11:19:56;;;;;;;0.20;0.20;;;;;;;;;;5082717;28;20204;-75
2021/03/14 11:22:23;;;;;;;0.20;0.20;;;;;;;;;;5064423;28;20243;-75
2021/03/14 11:24:50;;;;;;;0.10;0.10;;;;;;;;;;5073136;28;20207;-76
2021/03/14 11:27:16;;;;;;;0.20;0.20;;;;;;;;;;5074054;28;20240;-74
2021/03/14 11:29:44;;;;;;;0.20;0.20;;;;;;;;;;5051453;28;20211;-76
2021/03/14 11:32:13;;;;;;;0.20;0.20;;;;;;;;;;5083222;28;20196;-76
2021/03/14 11:34:40;;;;;;;0.20;0.20;;;;;;;;;;5083460;28;20210;-76
2021/03/14 11:37:07;;;;;;;0.20;0.20;;;;;;;;;;5065423;28;20202;-75
2021/03/14 11:39:33;;;;;;;0.20;0.20;;;;;;;;;;5062232;28;20220;-75
2021/03/14 11:42:00;;;;;;;0.20;0.20;;;;;;;;;;5080638;28;20217;-75
2021/03/14 11:44:27;;;;;;;0.20;0.20;;;;;;;;;;5055881;28;20225;-75
2021/03/14 11:46:54;;;;;;;0.20;0.20;;;;;;;;;;5060749;28;20202;-75
2021/03/14 11:49:22;;;;;;;0.20;0.20;;;;;;;;;;5074695;28;20335;-75
2021/03/14 11:51:48;;;;;;;0.20;0.20;;;;;;;;;;5079305;28;20249;-74
2021/03/14 11:54:17;;;;;;;0.20;0.20;;;;;;;;;;5078626;28;20348;-75
2021/03/14 11:56:43;;;;;;;0.60;0.60;;;;;;;;;;5082605;28;20269;-75
2021/03/14 11:59:09;;;;;;;0.27;0.27;;;;;;;;;;5070900;28;20266;-74
2021/03/14 12:01:36;;;;;;;0.43;0.43;;;;;;;;;;5053251;28;20210;-74
2021/03/14 12:04:03;;;;;;;0.20;0.20;;;;;;;;;;5057152;28;20536;-75
2021/03/14 12:06:30;;;;;;;0.17;0.17;;;;;;;;;;5058885;28;20202;-75
2021/03/14 12:08:57;;;;;;;0.20;0.20;;;;;;;;;;5066123;28;20202;-75
2021/03/14 12:11:24;;;;;;;0.20;0.20;;;;;;;;;;5054379;28;20202;-76
2021/03/14 12:13:50;;;;;;;0.20;0.20;;;;;;;;;;5061045;28;20455;-75
2021/03/14 12:16:16;;;;;;;0.20;0.20;;;;;;;;;;5077188;28;20256;-75
2021/03/14 12:18:43;;;;;;;0.10;0.10;;;;;;;;;;5074878;28;20397;-75
2021/03/14 12:21:10;;;;;;;0.20;0.20;;;;;;;;;;5059397;28;20277;-76
2021/03/14 12:23:37;;;;;;;0.20;0.20;;;;;;;;;;5063790;28;20490;-76
2021/03/14 12:26:04;;;;;;;0.10;0.10;;;;;;;;;;5080097;28;20230;-75
2021/03/14 12:28:31;;;;;;;0.20;0.20;;;;;;;;;;5065415;28;20212;-75
2021/03/14 12:30:57;;;;;;;0.20;0.20;;;;;;;;;;5077211;28;20392;-75
2021/03/14 12:33:24;;;;;;;0.10;0.10;;;;;;;;;;5081442;28;20202;-76
2021/03/14 12:35:51;;;;;;;0.20;0.20;;;;;;;;;;5058403;28;21373;-76
2021/03/14 12:38:18;;;;;;;0.20;0.20;;;;;;;;;;5073091;28;20388;-76
2021/03/14 12:40:46;;;;;;;0.10;0.10;;;;;;;;;;5054459;28;20194;-76
2021/03/14 12:43:13;;;;;;;0.10;0.10;;;;;;;;;;5073770;28;20230;-76
2021/03/14 12:45:39;;;;;;;0.10;0.10;;;;;;;;;;5052742;28;20271;-75
2021/03/14 12:48:06;;;;;;;0.13;0.13;;;;;;;;;;5077604;28;20236;-76
2021/03/14 12:50:32;;;;;;;0.37;0.37;;;;;;;;;;5081789;28;20408;-76
2021/03/14 12:52:59;;;;;;;0.10;0.10;;;;;;;;;;5079740;28;20284;-77
2021/03/14 12:55:27;;;;;;;0.20;0.20;;;;;;;;;;5081636;28;20201;-78
2021/03/14 12:57:54;;;;;;;0.40;0.40;;;;;;;;;;5059344;28;20510;-78
2021/03/14 13:00:21;;;;;;;0.20;0.20;;;;;;;;;;5058318;28;20206;-77
2021/03/14 13:02:48;;;;;;;0.20;0.20;;;;;;;;;;5078398;28;20253;-77
2021/03/14 13:05:14;;;;;;;0.20;0.20;;;;;;;;;;5057454;28;20225;-76
2021/03/14 13:07:41;;;;;;;0.20;0.20;;;;;;;;;;5066142;28;20382;-77
2021/03/14 13:10:08;;;;;;;0.20;0.20;;;;;;;;;;5072416;28;20222;-75
2021/03/14 13:12:37;;;;;;;0.50;0.50;;;;;;;;;;5084678;28;20264;-76
2021/03/14 13:15:05;;;;;;;0.10;0.10;;;;;;;;;;5081430;28;20244;-76
2021/03/14 13:17:31;;;;;;;0.20;0.20;;;;;;;;;;5078187;28;20293;-69
2021/03/14 13:19:58;;;;;;;0.10;0.10;;;;;;;;;;5061650;28;20293;-77
2021/03/14 13:22:24;;;;;;;0.17;0.17;;;;;;;;;;5060786;28;20277;-76
2021/03/14 13:24:51;;;;;;;0.20;0.20;;;;;;;;;;5052807;28;20218;-75
2021/03/14 13:27:17;;;;;;;0.17;0.17;;;;;;;;;;5082360;28;20280;-75
2021/03/14 13:29:46;;;;;;;0.10;0.10;;;;;;;;;;5062867;28;20597;-76
2021/03/14 13:32:13;;;;;;;0.20;0.20;;;;;;;;;;5082324;28;20504;-78
2021/03/14 13:34:40;;;;;;;0.20;0.20;;;;;;;;;;5060283;28;20203;-77
2021/03/14 13:37:08;;;;;;;0.10;0.10;;;;;;;;;;5059944;28;20205;-76
2021/03/14 13:39:34;;;;;;;0.20;0.20;;;;;;;;;;5078184;28;20206;-78
2021/03/14 13:42:00;;;;;;;0.20;0.20;;;;;;;;;;5081254;28;20195;-77
2021/03/14 13:44:27;;;;;;;0.20;0.20;;;;;;;;;;5061754;28;20233;-76
2021/03/14 13:46:53;;;;;;;0.10;0.10;;;;;;;;;;5063565;28;20202;-77
2021/03/14 13:49:21;;;;;;;0.80;0.80;;;;;;;;;;5079799;28;20502;-77
2021/03/14 13:51:47;;;;;;;0.10;0.10;;;;;;;;;;5081495;28;20202;-78
2021/03/14 13:54:13;;;;;;;0.20;0.20;;;;;;;;;;5079935;28;20199;-78
2021/03/14 13:56:40;;;;;;;0.20;0.20;;;;;;;;;;5064741;28;20496;-77
2021/03/14 13:59:06;;;;;;;0.10;0.10;;;;;;;;;;5063581;28;20497;-78
2021/03/14 14:01:33;;;;;;;0.10;0.10;;;;;;;;;;5079177;28;20249;-78
2021/03/14 14:03:59;;;;;;;0.20;0.20;;;;;;;;;;5061906;28;20225;-78
2021/03/14 14:06:26;;;;;;;0.10;0.10;;;;;;;;;;5058096;28;20210;-77
2021/03/14 14:08:53;;;;;;;0.13;0.13;;;;;;;;;;5080288;28;20502;-74
2021/03/14 14:11:22;;;;;;;0.17;0.17;;;;;;;;;;5075718;28;20202;-76
2021/03/14 14:13:49;;;;;;;0.20;0.20;;;;;;;;;;5072773;28;20379;-77
2021/03/14 14:16:16;;;;;;;0.20;0.20;;;;;;;;;;5058917;28;20511;-77
2021/03/14 14:18:42;;;;;;;0.20;0.20;;;;;;;;;;5062589;28;20203;-76
2021/03/14 14:21:09;;;;;;;0.20;0.20;;;;;;;;;;5079598;28;20210;-77
2021/03/14 14:23:36;;;;;;;0.13;0.13;;;;;;;;;;5076589;28;20293;-77
2021/03/14 14:26:02;;;;;;;0.10;0.10;;;;;;;;;;5064961;28;20290;-79
2021/03/14 14:28:29;;;;;;;0.20;0.20;;;;;;;;;;5080723;28;20203;-77
2021/03/14 14:30:55;;;;;;;0.20;0.20;;;;;;;;;;5079893;28;20310;-77
2021/03/14 14:33:23;;;;;;;0.13;0.13;;;;;;;;;;5060700;28;20208;-77
2021/03/14 14:35:50;;;;;;;0.10;0.10;;;;;;;;;;5053749;28;20207;-78
2021/03/14 14:38:17;;;;;;;0.10;0.10;;;;;;;;;;5054290;28;20239;-77
2021/03/14 14:40:44;;;;;;;0.10;0.10;;;;;;;;;;5071368;28;20390;-75
2021/03/14 14:43:11;;;;;;;0.10;0.10;;;;;;;;;;5053069;28;20388;-78
2021/03/14 14:45:37;;;;;;;0.10;0.10;;;;;;;;;;5055208;28;20201;-77